Chelmsford, Canada
Current Conditions -  °F | °C
As of 11:00 AM on Friday 28 Nov 2014 (Local Time) from CYSB Reporting Station
Scattered Clouds Scattered Clouds  
Wind Chill: -10°   Ceiling: Unl
Heat Index:   Visibility: 15mi
Dew Point: -6°   Wind: 5mph
Humidity: 78%   Direction: 270°W
Pressure: 30.17"   Gusts: NA
Location:  46.58°N, 81.2°W
Report Text: CYSB 281600Z 27004KT 15SM FEW005 FEW140 SCT200 M18/M21 A3017 RMK CF1AC1CI2 SLP251
Loading
Personal Weather Stations






























Interactive Weather Map New forecast layout! Learn more

10-Day Weather Forecast

Advertisements
Track Severe Weather on mobile